createdAt,value
2018-11-03T00:00:40.671Z,11.30
2018-11-03T00:01:40.676Z,12.60
2018-11-03T00:02:40.688Z,13.20
2018-11-03T00:03:40.698Z,12.10
2018-11-03T00:04:40.712Z,12.80
2018-11-03T00:05:40.721Z,15.80
2018-11-03T00:06:40.733Z,15.00
2018-11-03T00:07:40.753Z,14.40
2018-11-03T00:08:40.762Z,15.40
2018-11-03T00:09:40.769Z,14.10
2018-11-03T00:10:40.779Z,12.40
2018-11-03T00:11:40.791Z,16.40
2018-11-03T00:12:40.806Z,16.40
2018-11-03T00:13:40.892Z,14.20
2018-11-03T00:14:40.824Z,13.10
2018-11-03T00:15:40.841Z,15.40
2018-11-03T00:16:40.850Z,13.10
2018-11-03T00:17:40.863Z,12.60
2018-11-03T00:18:40.875Z,12.70
2018-11-03T00:19:40.888Z,15.10
2018-11-03T00:20:40.899Z,14.50
2018-11-03T00:21:40.913Z,13.20
2018-11-03T00:22:40.921Z,15.20
2018-11-03T00:23:40.929Z,14.80
2018-11-03T00:24:40.945Z,15.10
2018-11-03T00:25:40.956Z,17.50
2018-11-03T00:26:40.967Z,18.30
2018-11-03T00:27:40.977Z,12.30
2018-11-03T00:28:40.988Z,15.40
2018-11-03T00:29:41.002Z,16.50
2018-11-03T00:30:41.014Z,15.60
2018-11-03T00:31:41.029Z,17.80
2018-11-03T00:32:41.036Z,16.00
2018-11-03T00:33:41.047Z,15.50
2018-11-03T00:34:41.058Z,15.50
2018-11-03T00:35:41.073Z,15.00
2018-11-03T00:36:41.110Z,17.30
2018-11-03T00:37:41.097Z,15.50
2018-11-03T00:38:41.108Z,14.60
2018-11-03T00:39:41.123Z,14.10
2018-11-03T00:40:41.192Z,14.90
2018-11-03T00:41:41.150Z,17.30
2018-11-03T00:42:41.176Z,12.90
2018-11-03T00:43:41.164Z,16.30
2018-11-03T00:44:41.175Z,16.60
2018-11-03T00:45:41.187Z,17.80
2018-11-03T00:46:41.198Z,15.30
2018-11-03T00:47:41.211Z,18.30
2018-11-03T00:48:41.231Z,15.40
2018-11-03T00:49:41.236Z,15.70
2018-11-03T00:50:41.241Z,14.80
2018-11-03T00:51:41.266Z,13.80
2018-11-03T00:52:41.271Z,16.60
2018-11-03T00:53:41.283Z,15.60
2018-11-03T00:54:41.289Z,15.30
2018-11-03T00:55:41.304Z,17.10
2018-11-03T00:56:41.315Z,16.90
2018-11-03T00:57:41.324Z,14.70
2018-11-03T00:58:41.338Z,17.00
2018-11-03T00:59:41.368Z,15.50
2018-11-03T01:00:41.363Z,16.30
2018-11-03T01:01:41.375Z,17.00
2018-11-03T01:02:41.398Z,17.80
2018-11-03T01:03:41.398Z,16.00
2018-11-03T01:04:41.411Z,15.00
2018-11-03T01:05:41.420Z,15.20
2018-11-03T01:06:41.442Z,16.60
2018-11-03T01:07:41.448Z,12.90
2018-11-03T01:08:41.455Z,13.20
2018-11-03T01:09:41.471Z,14.90
2018-11-03T01:10:41.477Z,13.70
2018-11-03T01:11:41.485Z,15.60
2018-11-03T01:12:41.501Z,16.90
2018-11-03T01:13:41.510Z,15.00
2018-11-03T01:14:41.524Z,17.20
2018-11-03T01:15:41.539Z,17.50
2018-11-03T01:16:41.546Z,17.00
2018-11-03T01:17:41.557Z,17.40
2018-11-03T01:18:41.567Z,17.00
2018-11-03T01:19:41.613Z,17.80
2018-11-03T01:20:41.593Z,20.00
2018-11-03T01:21:41.613Z,17.90
2018-11-03T01:22:41.626Z,18.50
2018-11-03T01:23:41.709Z,17.60
2018-11-03T01:24:41.640Z,16.30
2018-11-03T01:25:41.647Z,17.30
2018-11-03T01:26:41.660Z,15.80
2018-11-03T01:27:41.675Z,17.40
2018-11-03T01:28:41.688Z,17.20
2018-11-03T01:29:41.702Z,16.00
2018-11-03T01:30:41.704Z,17.20
2018-11-03T01:31:41.719Z,15.70
2018-11-03T01:32:41.812Z,16.80
2018-11-03T01:33:41.740Z,14.80
2018-11-03T01:34:41.754Z,15.10
2018-11-03T01:35:41.763Z,15.10
2018-11-03T01:36:41.774Z,15.10
2018-11-03T01:37:41.787Z,15.50
2018-11-03T01:38:41.799Z,17.10
2018-11-03T01:39:41.810Z,15.50
2018-11-03T01:40:41.821Z,15.10
2018-11-03T01:41:41.833Z,14.20
2018-11-03T01:42:41.846Z,16.20
2018-11-03T01:43:41.866Z,18.30
2018-11-03T01:44:41.868Z,15.40
2018-11-03T01:45:41.879Z,16.60
2018-11-03T01:46:41.906Z,15.70
2018-11-03T01:47:41.903Z,16.50
2018-11-03T01:48:41.913Z,16.40
2018-11-03T01:49:41.922Z,15.90
2018-11-03T01:50:41.940Z,17.00
2018-11-03T01:51:41.943Z,16.30
2018-11-03T01:52:41.956Z,18.00
2018-11-03T01:53:41.965Z,16.10
2018-11-03T01:54:41.983Z,16.80
2018-11-03T01:55:42.022Z,14.50
2018-11-03T01:56:42.002Z,16.50
2018-11-03T01:57:42.013Z,16.50
2018-11-03T01:58:42.023Z,16.20
2018-11-03T01:59:42.035Z,14.70
2018-11-03T02:00:42.052Z,16.90
2018-11-03T02:01:42.059Z,15.90
2018-11-03T02:02:42.073Z,16.40
2018-11-03T02:03:42.085Z,17.10
2018-11-03T02:04:42.095Z,15.90
2018-11-03T02:05:42.139Z,16.10
2018-11-03T02:06:42.123Z,14.70
2018-11-03T02:07:42.133Z,16.00
2018-11-03T02:08:42.144Z,18.60
2018-11-03T02:09:42.149Z,17.90
2018-11-03T02:10:42.162Z,17.10
2018-11-03T02:11:42.179Z,17.80
2018-11-03T02:12:42.188Z,15.90
2018-11-03T02:13:42.197Z,15.20
2018-11-03T02:14:42.210Z,15.80
2018-11-03T02:15:42.220Z,15.90
2018-11-03T02:16:42.228Z,18.20
2018-11-03T02:17:42.247Z,14.50
2018-11-03T02:18:42.256Z,15.30
2018-11-03T02:19:42.269Z,16.90
2018-11-03T02:20:42.276Z,17.20
2018-11-03T02:21:42.288Z,13.40
2018-11-03T02:22:42.300Z,15.50
2018-11-03T02:23:42.310Z,16.30
2018-11-03T02:24:42.324Z,16.40
2018-11-03T02:25:42.332Z,14.70
2018-11-03T02:26:42.388Z,18.10
2018-11-03T02:27:42.357Z,17.30
2018-11-03T02:28:42.375Z,13.70
2018-11-03T02:29:42.377Z,14.40
2018-11-03T02:30:42.391Z,17.40
2018-11-03T02:31:42.403Z,15.30
2018-11-03T02:32:42.419Z,16.00
2018-11-03T02:33:42.427Z,15.50
2018-11-03T02:34:42.447Z,17.80
2018-11-03T02:35:42.462Z,16.80
2018-11-03T02:36:42.460Z,14.30
2018-11-03T02:37:42.468Z,16.60
2018-11-03T02:38:42.485Z,14.10
2018-11-03T02:39:42.531Z,16.00
2018-11-03T02:40:42.504Z,15.60
2018-11-03T02:41:42.512Z,15.50
2018-11-03T02:42:42.533Z,16.70
2018-11-03T02:43:42.542Z,16.90
2018-11-03T02:44:42.550Z,15.20
2018-11-03T02:45:42.562Z,13.20
2018-11-03T02:46:42.571Z,17.70
2018-11-03T02:47:42.584Z,14.90
2018-11-03T02:48:42.596Z,15.70
2018-11-03T02:49:42.607Z,14.60
2018-11-03T02:50:42.616Z,16.20
2018-11-03T02:51:42.625Z,19.80
2018-11-03T02:52:42.640Z,18.30
2018-11-03T02:53:42.648Z,20.00
2018-11-03T02:54:42.662Z,19.50
2018-11-03T02:55:42.695Z,16.70
2018-11-03T02:56:42.685Z,19.80
2018-11-03T02:57:42.699Z,16.70
2018-11-03T02:58:42.705Z,18.70
2018-11-03T02:59:42.720Z,16.80
2018-11-03T03:00:42.730Z,17.10
2018-11-03T03:01:42.741Z,14.50
2018-11-03T03:02:42.755Z,16.60
2018-11-03T03:03:42.786Z,14.80
2018-11-03T03:04:42.777Z,15.10
2018-11-03T03:05:42.785Z,17.10
2018-11-03T03:06:42.797Z,17.60
2018-11-03T03:07:42.806Z,16.60
2018-11-03T03:08:42.818Z,16.60
2018-11-03T03:37:34.810Z,17.20
2018-11-03T03:38:34.791Z,19.60
2018-11-03T03:40:26.726Z,22.80
2018-11-03T03:41:26.704Z,20.80
2018-11-03T03:43:18.614Z,19.30
2018-11-03T03:44:18.622Z,18.80
2018-11-03T03:46:10.553Z,18.00
2018-11-03T03:47:10.568Z,21.80
2018-11-03T03:49:02.468Z,18.50
2018-11-03T03:50:02.452Z,21.80
2018-11-03T03:51:54.361Z,20.40
2018-11-03T03:52:54.380Z,20.90
2018-11-03T03:54:46.281Z,18.70
2018-11-03T03:55:46.266Z,20.50
2018-11-03T03:57:38.194Z,18.30
2018-11-03T03:58:38.198Z,19.70
2018-11-03T04:00:30.115Z,19.10
2018-11-03T04:01:30.101Z,20.20
2018-11-03T04:03:22.008Z,17.30
2018-11-03T04:04:22.017Z,20.40
2018-11-03T04:06:13.946Z,19.50
2018-11-03T04:07:13.963Z,18.10
2018-11-03T04:09:05.835Z,17.60
2018-11-03T04:10:05.835Z,15.80
2018-11-03T04:11:57.760Z,18.40
2018-11-03T04:12:57.733Z,20.70
2018-11-03T04:14:49.684Z,18.80
2018-11-03T04:15:49.647Z,19.70
2018-11-03T04:17:41.541Z,20.60
2018-11-03T04:18:41.548Z,22.10
2018-11-03T04:20:33.490Z,17.50
2018-11-03T04:21:33.469Z,18.80
2018-11-03T04:23:25.387Z,18.70
2018-11-03T04:24:25.395Z,22.30
2018-11-03T04:26:17.318Z,17.50
2018-11-03T04:27:17.300Z,21.40
2018-11-03T04:29:09.233Z,18.70
2018-11-03T04:30:09.230Z,21.70
2018-11-03T04:32:01.146Z,18.80
2018-11-03T04:33:01.143Z,21.10
2018-11-03T04:34:53.053Z,19.40
2018-11-03T04:35:53.060Z,18.70
2018-11-03T04:37:44.979Z,21.20
2018-11-03T04:38:44.968Z,18.70
2018-11-03T04:40:36.906Z,17.20
2018-11-03T04:41:36.893Z,19.50
2018-11-03T04:43:28.809Z,18.30
2018-11-03T04:44:28.815Z,18.60
2018-11-03T04:46:20.768Z,16.30
2018-11-03T04:47:20.748Z,20.30
2018-11-03T04:49:12.669Z,19.80
2018-11-03T04:50:12.675Z,19.90
2018-11-03T04:52:04.612Z,18.80
2018-11-03T04:53:04.606Z,18.00
2018-11-03T04:54:56.556Z,20.40
2018-11-03T04:55:56.520Z,18.30
2018-11-03T04:57:48.450Z,17.40
2018-11-03T04:58:48.441Z,19.40
2018-11-03T05:00:40.353Z,17.80
2018-11-03T05:01:40.357Z,15.50
2018-11-03T05:03:32.312Z,16.60
2018-11-03T05:04:32.288Z,16.70
2018-11-03T05:06:24.225Z,18.30
2018-11-03T05:07:24.217Z,19.50
2018-11-03T05:09:16.139Z,17.70
2018-11-03T05:10:16.208Z,16.00
2018-11-03T05:12:08.068Z,16.10
2018-11-03T05:13:08.046Z,16.80
2018-11-03T05:14:59.952Z,17.30
2018-11-03T05:15:59.954Z,19.50
2018-11-03T05:17:51.890Z,20.10
2018-11-03T05:18:51.878Z,20.70
2018-11-03T05:20:43.814Z,17.20
2018-11-03T05:21:43.809Z,20.00
2018-11-03T05:23:35.747Z,19.30
2018-11-03T05:24:35.728Z,19.80
2018-11-03T05:26:27.661Z,18.30
2018-11-03T05:27:27.663Z,19.00
2018-11-03T05:29:19.608Z,19.80
2018-11-03T05:30:19.599Z,21.00
2018-11-03T05:32:11.538Z,20.70
2018-11-03T05:33:11.553Z,19.50
2018-11-03T05:35:03.468Z,19.30
2018-11-03T05:36:03.455Z,17.00
2018-11-03T05:37:55.385Z,16.70
2018-11-03T05:38:55.410Z,17.40
2018-11-03T05:40:47.287Z,16.80
2018-11-03T05:41:47.296Z,20.20
2018-11-03T05:43:39.229Z,18.60
2018-11-03T05:44:39.218Z,16.10
2018-11-03T05:46:31.147Z,18.50
2018-11-03T05:47:31.136Z,15.40
2018-11-03T05:49:23.074Z,16.60
2018-11-03T05:50:23.057Z,18.20
2018-11-03T05:52:14.985Z,16.60
2018-11-03T05:53:14.991Z,19.60
2018-11-03T05:55:06.942Z,17.50
2018-11-03T05:56:06.921Z,16.80
2018-11-03T05:57:58.878Z,16.60
2018-11-03T05:58:58.875Z,17.40
2018-11-03T06:00:50.754Z,16.80
2018-11-03T06:01:50.756Z,19.00
2018-11-03T06:03:42.693Z,18.70
2018-11-03T06:04:42.754Z,21.10
2018-11-03T06:06:34.613Z,20.30
2018-11-03T06:07:34.618Z,17.00
2018-11-03T06:09:26.541Z,18.10
2018-11-03T06:10:26.536Z,18.10
2018-11-03T06:12:18.930Z,18.60
2018-11-03T06:13:18.934Z,21.30
2018-11-03T06:15:10.871Z,18.00
2018-11-03T06:16:10.858Z,16.40
2018-11-03T06:18:02.776Z,16.00
2018-11-03T06:19:02.785Z,17.90
2018-11-03T06:20:54.715Z,20.30
2018-11-03T06:21:54.700Z,17.20
2018-11-03T06:23:46.648Z,17.40
2018-11-03T06:24:46.630Z,17.10
2018-11-03T06:26:38.565Z,21.40
2018-11-03T06:27:38.582Z,18.40
2018-11-03T06:29:30.520Z,18.50
2018-11-03T06:30:30.506Z,17.20
2018-11-03T06:32:22.408Z,16.90
2018-11-03T06:33:22.412Z,16.50
2018-11-03T06:35:14.397Z,18.10
2018-11-03T06:36:14.340Z,16.30
2018-11-03T06:38:06.254Z,20.00
2018-11-03T06:39:06.283Z,19.70
2018-11-03T06:40:58.214Z,18.30
2018-11-03T06:41:58.187Z,17.60
2018-11-03T06:43:50.117Z,17.70
2018-11-03T06:44:50.110Z,17.00
2018-11-03T06:46:42.255Z,19.60
2018-11-03T06:47:42.026Z,18.90
2018-11-03T06:49:33.969Z,17.20
2018-11-03T06:50:33.955Z,17.60
2018-11-03T06:52:25.994Z,19.00
2018-11-03T06:53:25.874Z,19.30
2018-11-03T06:55:17.802Z,21.10
2018-11-03T06:56:17.788Z,21.30
2018-11-03T06:58:09.706Z,21.20
2018-11-03T06:59:09.713Z,17.10
2018-11-03T07:01:01.667Z,19.00
2018-11-03T07:02:01.648Z,20.90
2018-11-03T07:03:53.568Z,18.60
2018-11-03T07:04:53.595Z,19.40
2018-11-03T07:06:45.519Z,16.40
2018-11-03T07:07:45.502Z,17.80
2018-11-03T07:09:37.477Z,18.40
2018-11-03T07:10:37.458Z,20.40
2018-11-03T07:12:29.651Z,18.60
2018-11-03T07:13:29.384Z,21.30
2018-11-03T07:15:21.305Z,17.30
2018-11-03T07:16:21.291Z,16.20
2018-11-03T07:18:13.203Z,19.10
2018-11-03T07:19:13.211Z,16.30
2018-11-03T07:21:05.144Z,19.60
2018-11-03T07:22:05.130Z,16.90
2018-11-03T07:23:57.059Z,18.00
2018-11-03T07:24:57.070Z,18.10
2018-11-03T07:26:49.009Z,21.40
2018-11-03T07:27:49.010Z,18.40
2018-11-03T07:29:40.956Z,17.80
2018-11-03T07:30:40.929Z,16.30
2018-11-03T07:32:32.888Z,19.20
2018-11-03T07:33:32.864Z,23.20
2018-11-03T07:35:24.803Z,23.10
2018-11-03T07:36:24.785Z,19.90
2018-11-03T07:38:16.702Z,19.20
2018-11-03T07:39:16.714Z,22.00
2018-11-03T07:41:08.854Z,19.30
2018-11-03T07:42:08.650Z,21.80
2018-11-03T07:44:00.562Z,20.20
2018-11-03T07:45:00.567Z,23.50
2018-11-03T07:46:52.511Z,17.50
2018-11-03T07:47:52.586Z,19.70
2018-11-03T07:49:44.422Z,19.20
2018-11-03T07:50:44.435Z,21.10
2018-11-03T07:52:36.389Z,22.10
2018-11-03T07:53:36.360Z,19.60
2018-11-03T07:55:28.282Z,19.50
2018-11-03T07:56:28.296Z,20.80
2018-11-03T07:58:20.238Z,21.30
2018-11-03T07:59:20.220Z,20.50
2018-11-03T08:01:12.168Z,22.30
2018-11-03T08:02:12.158Z,23.50
2018-11-03T08:04:04.085Z,22.40
2018-11-03T08:05:04.090Z,21.80
2018-11-03T08:06:56.034Z,23.50
2018-11-03T08:07:56.020Z,23.80
2018-11-03T08:09:47.948Z,23.60
2018-11-03T08:10:47.959Z,21.00
2018-11-03T08:12:39.896Z,19.10
2018-11-03T08:13:39.884Z,19.60
2018-11-03T08:15:31.807Z,24.60
2018-11-03T08:16:31.809Z,24.50
2018-11-03T08:18:23.759Z,22.20
2018-11-03T08:19:23.741Z,21.60
2018-11-03T08:21:15.648Z,20.50
2018-11-03T08:22:15.678Z,22.10
2018-11-03T08:24:07.686Z,22.80
2018-11-03T08:25:07.591Z,22.20
2018-11-03T08:26:59.551Z,21.50
2018-11-03T08:27:59.534Z,22.80
2018-11-03T08:29:51.440Z,20.40
2018-11-03T08:30:51.448Z,21.00
2018-11-03T08:32:43.386Z,25.20
2018-11-03T08:33:43.372Z,21.80
2018-11-03T08:35:35.305Z,25.60
2018-11-03T08:36:35.315Z,22.40
2018-11-03T08:38:27.264Z,20.60
2018-11-03T08:39:27.323Z,24.40
2018-11-03T08:41:19.359Z,25.40
2018-11-03T08:42:19.366Z,21.40
2018-11-03T08:44:11.317Z,20.80
2018-11-03T08:45:11.308Z,23.50
2018-11-03T08:47:03.272Z,22.80
2018-11-03T08:48:03.312Z,23.10
2018-11-03T08:49:55.208Z,21.60
2018-11-03T08:50:55.213Z,26.40
2018-11-03T08:52:47.165Z,21.80
2018-11-03T08:53:47.135Z,24.90
2018-11-03T08:55:39.072Z,23.70
2018-11-03T08:56:39.074Z,26.90
2018-11-03T08:58:31.017Z,39.30
2018-11-03T08:59:31.052Z,40.50
2018-11-03T09:01:22.933Z,38.40
2018-11-03T09:02:22.944Z,44.40
2018-11-03T09:04:15.381Z,36.90
2018-11-03T09:05:15.370Z,35.60
2018-11-03T09:07:07.353Z,32.50
2018-11-03T09:08:07.298Z,29.30
2018-11-03T09:09:59.231Z,27.80
2018-11-03T09:10:59.262Z,29.00
2018-11-03T09:12:51.203Z,25.50
2018-11-03T09:13:51.181Z,27.70
2018-11-03T09:15:43.106Z,35.50
2018-11-03T09:16:43.113Z,29.80
2018-11-03T09:18:35.050Z,30.00
2018-11-03T09:19:35.041Z,29.70
2018-11-03T09:21:26.979Z,30.30
2018-11-03T09:22:27.030Z,31.00
2018-11-03T09:24:18.932Z,29.70
2018-11-03T09:25:18.925Z,29.60
2018-11-03T09:27:10.843Z,28.00
2018-11-03T09:28:10.860Z,26.20
2018-11-03T09:30:03.308Z,28.10
2018-11-03T09:31:03.297Z,22.50
2018-11-03T09:32:55.210Z,23.10
2018-11-03T09:33:55.222Z,26.60
2018-11-03T09:35:47.172Z,24.60
2018-11-03T09:36:47.158Z,24.90
2018-11-03T09:38:39.178Z,25.50
2018-11-03T09:39:39.121Z,25.00
2018-11-03T09:41:31.046Z,24.20
2018-11-03T09:42:31.063Z,23.30
2018-11-03T09:44:22.988Z,27.20
2018-11-03T09:45:22.979Z,27.20
2018-11-03T09:47:14.901Z,24.20
2018-11-03T09:48:14.909Z,26.20
2018-11-03T09:50:06.841Z,26.40
2018-11-03T09:51:06.905Z,25.60
2018-11-03T09:52:58.764Z,26.20
2018-11-03T09:53:58.770Z,26.60
2018-11-03T09:55:50.735Z,23.40
2018-11-03T09:56:50.701Z,25.20
2018-11-03T09:58:42.627Z,26.10
2018-11-03T09:59:42.630Z,23.60
2018-11-03T10:01:34.583Z,27.80
2018-11-03T10:02:34.569Z,25.50
2018-11-03T10:04:26.528Z,23.90
2018-11-03T10:05:26.517Z,25.40
2018-11-03T10:07:18.438Z,27.90
2018-11-03T10:08:18.448Z,26.80
2018-11-03T10:10:10.383Z,25.90
2018-11-03T10:11:10.364Z,26.80
2018-11-03T10:13:02.298Z,26.30
2018-11-03T10:14:02.302Z,24.00
2018-11-03T10:15:54.311Z,25.60
2018-11-03T10:16:54.242Z,24.20
2018-11-03T10:18:46.149Z,23.20
2018-11-03T10:19:46.157Z,25.10
2018-11-03T10:21:38.096Z,25.80
2018-11-03T10:22:38.107Z,24.70
2018-11-03T10:24:29.999Z,26.00
2018-11-03T10:25:30.017Z,24.20
2018-11-03T10:27:21.963Z,23.60
2018-11-03T10:28:21.950Z,24.70
2018-11-03T10:30:13.883Z,22.70
2018-11-03T10:31:13.874Z,23.50
2018-11-03T10:33:05.799Z,23.60
2018-11-03T10:34:05.808Z,25.20
2018-11-03T10:35:57.751Z,27.20
2018-11-03T10:36:57.743Z,23.90
2018-11-03T10:38:49.691Z,22.60
2018-11-03T10:39:49.726Z,25.10
2018-11-03T10:41:41.646Z,23.00
2018-11-03T10:42:41.635Z,25.20
2018-11-03T10:44:33.536Z,24.30
2018-11-03T10:45:33.556Z,24.80
2018-11-03T10:47:25.491Z,24.30
2018-11-03T10:48:25.473Z,24.40
2018-11-03T10:50:17.388Z,25.20
2018-11-03T10:51:17.400Z,25.10
2018-11-03T10:53:09.347Z,24.60
2018-11-03T10:54:09.336Z,23.20
2018-11-03T10:56:01.275Z,21.60
2018-11-03T10:57:01.266Z,22.60
2018-11-03T10:58:53.197Z,22.80
2018-11-03T10:59:53.196Z,25.10
2018-11-03T11:01:45.133Z,22.80
2018-11-03T11:02:45.115Z,24.70
2018-11-03T11:04:37.048Z,23.70
2018-11-03T11:05:37.058Z,24.90
2018-11-03T11:07:29.001Z,21.20
2018-11-03T11:08:28.991Z,22.70
2018-11-03T11:10:20.903Z,22.20
2018-11-03T11:11:20.912Z,20.30
2018-11-03T11:13:12.862Z,24.90
2018-11-03T11:14:12.891Z,21.40
2018-11-03T11:16:04.783Z,21.80
2018-11-03T11:17:04.882Z,21.70
2018-11-03T11:18:56.767Z,21.90
2018-11-03T11:19:56.748Z,19.90
2018-11-03T11:21:48.732Z,19.80
2018-11-03T11:22:48.693Z,21.10
2018-11-03T11:24:40.687Z,21.60
2018-11-03T11:25:40.628Z,22.60
2018-11-03T11:27:32.583Z,19.90
2018-11-03T11:28:32.603Z,23.40
2018-11-03T11:30:24.517Z,20.40
2018-11-03T11:31:24.686Z,18.50
2018-11-03T11:33:16.460Z,20.30
2018-11-03T11:34:16.454Z,20.20
2018-11-03T11:36:08.394Z,20.40
2018-11-03T11:37:08.397Z,20.70
2018-11-03T11:39:00.339Z,16.80
2018-11-03T11:40:00.347Z,20.30
2018-11-03T11:41:52.259Z,16.70
2018-11-03T11:42:52.278Z,21.30
2018-11-03T11:44:44.185Z,16.40
2018-11-03T11:45:44.177Z,14.20
2018-11-03T11:47:36.120Z,18.70
2018-11-03T11:48:36.141Z,16.40
2018-11-03T11:50:28.040Z,17.90
2018-11-03T11:51:28.045Z,19.20
2018-11-03T11:53:20.002Z,16.10
2018-11-03T11:54:19.978Z,20.40
2018-11-03T11:55:19.989Z,17.60
2018-11-03T11:56:20.006Z,16.30
2018-11-03T11:57:20.029Z,15.30
2018-11-03T11:58:20.037Z,17.70
2018-11-03T11:59:20.055Z,17.50
2018-11-03T12:00:20.074Z,21.70
2018-11-03T12:01:20.084Z,22.70
2018-11-03T12:02:20.174Z,24.30
2018-11-03T12:03:20.116Z,20.20
2018-11-03T12:04:20.133Z,19.70
2018-11-03T12:05:20.146Z,20.00
2018-11-03T12:06:20.165Z,22.30
2018-11-03T12:07:20.180Z,25.10
2018-11-03T12:08:20.196Z,22.50
2018-11-03T12:09:20.215Z,20.40
2018-11-03T12:10:20.228Z,20.60
2018-11-03T12:11:20.241Z,23.20
2018-11-03T12:12:20.258Z,22.90
2018-11-03T12:13:20.279Z,19.50
2018-11-03T12:14:20.288Z,22.00
2018-11-03T12:15:20.302Z,22.10
2018-11-03T12:16:20.468Z,24.50
2018-11-03T12:17:20.332Z,19.90
2018-11-03T12:18:20.348Z,20.20
2018-11-03T12:19:20.361Z,18.50
2018-11-03T12:20:20.381Z,18.80
2018-11-03T12:21:20.393Z,21.20
2018-11-03T12:22:20.416Z,17.70
2018-11-03T12:23:20.426Z,18.40
2018-11-03T12:24:20.441Z,17.90
2018-11-03T12:25:20.471Z,19.70
2018-11-03T12:26:20.509Z,20.70
2018-11-03T12:27:20.486Z,16.90
2018-11-03T12:28:20.505Z,20.00
2018-11-03T12:29:20.527Z,24.20
2018-11-03T12:30:20.534Z,20.10
2018-11-03T12:31:20.549Z,18.00
2018-11-03T12:32:20.564Z,18.50
2018-11-03T12:33:20.580Z,19.30
2018-11-03T12:34:20.601Z,19.90
2018-11-03T12:35:20.608Z,19.50
2018-11-03T12:36:20.626Z,20.00
2018-11-03T12:37:20.643Z,18.10
2018-11-03T12:38:20.653Z,18.50
2018-11-03T12:39:20.678Z,21.10
2018-11-03T12:40:20.685Z,21.00
2018-11-03T12:41:20.739Z,21.00
2018-11-03T12:42:20.722Z,20.60
2018-11-03T12:43:20.732Z,23.20
2018-11-03T12:44:20.747Z,18.10
2018-11-03T12:45:20.767Z,17.30
2018-11-03T12:46:20.785Z,16.90
2018-11-03T12:47:20.792Z,18.50
2018-11-03T12:48:20.814Z,17.20
2018-11-03T12:49:20.824Z,19.50
2018-11-03T12:50:20.839Z,18.10
2018-11-03T12:51:20.852Z,25.40
2018-11-03T12:52:20.870Z,22.50
2018-11-03T12:53:20.887Z,26.20
2018-11-03T12:54:20.899Z,19.90
2018-11-03T12:55:20.918Z,17.40
2018-11-03T12:56:20.951Z,22.50
2018-11-03T12:57:20.944Z,27.50
2018-11-03T12:58:20.968Z,18.50
2018-11-03T12:59:21.079Z,18.40
2018-11-03T13:00:21.033Z,19.10
2018-11-03T13:01:21.006Z,18.00
2018-11-03T13:02:21.022Z,20.00
2018-11-03T13:03:21.126Z,17.10
2018-11-03T13:04:21.068Z,20.30
2018-11-03T13:05:21.285Z,17.60
2018-11-03T13:06:21.087Z,16.40
2018-11-03T13:07:21.096Z,12.10
2018-11-03T13:08:21.247Z,13.70
2018-11-03T13:09:21.238Z,13.80
2018-11-03T13:10:21.147Z,16.40
2018-11-03T13:11:21.157Z,15.50
2018-11-03T13:12:21.172Z,11.90
2018-11-03T13:13:21.189Z,11.90
2018-11-03T13:14:21.201Z,16.30
2018-11-03T13:15:21.267Z,12.10
2018-11-03T13:16:21.237Z,11.80
2018-11-03T13:17:21.249Z,10.90
2018-11-03T13:18:21.264Z,11.50
2018-11-03T13:19:21.277Z,9.00
2018-11-03T13:20:21.292Z,12.50
2018-11-03T13:21:21.310Z,10.00
2018-11-03T13:22:21.326Z,12.50
2018-11-03T13:23:21.345Z,13.80
2018-11-03T13:24:21.357Z,10.40
2018-11-03T13:25:21.373Z,10.30
2018-11-03T13:26:21.384Z,12.50
2018-11-03T13:27:21.402Z,11.40
2018-11-03T13:28:21.416Z,12.80
2018-11-03T13:29:21.434Z,11.50
2018-11-03T13:30:21.447Z,10.50
2018-11-03T13:31:21.463Z,11.90
2018-11-03T13:32:21.474Z,9.60
2018-11-03T13:33:21.491Z,14.10
2018-11-03T13:34:21.508Z,13.80
2018-11-03T13:35:21.518Z,13.50
2018-11-03T13:36:21.539Z,9.80
2018-11-03T13:37:21.551Z,11.90
2018-11-03T13:38:21.565Z,10.30
2018-11-03T13:39:21.584Z,9.70
2018-11-03T13:40:21.597Z,11.70
2018-11-03T13:41:21.614Z,10.60
2018-11-03T13:42:21.625Z,11.80
2018-11-03T13:43:21.645Z,13.60
2018-11-03T13:44:21.658Z,10.80
2018-11-03T13:45:21.671Z,12.90
2018-11-03T13:46:21.690Z,8.30
2018-11-03T13:47:21.864Z,9.90
2018-11-03T13:48:21.723Z,8.60
2018-11-03T13:49:21.734Z,13.00
2018-11-03T13:50:21.749Z,10.00
2018-11-03T13:51:21.766Z,8.60
2018-11-03T13:52:21.783Z,8.10
2018-11-03T13:53:21.798Z,8.50
2018-11-03T13:54:21.815Z,9.70
2018-11-03T13:55:21.832Z,10.10
2018-11-03T13:56:21.845Z,9.30
2018-11-03T13:57:21.871Z,10.00
2018-11-03T13:58:21.870Z,11.10
2018-11-03T13:59:21.887Z,10.10
2018-11-03T14:00:21.903Z,10.20
2018-11-03T14:01:21.925Z,10.10
2018-11-03T14:02:21.936Z,12.50
2018-11-03T14:03:21.955Z,11.20
2018-11-03T14:04:21.965Z,11.90
2018-11-03T14:05:21.980Z,11.20
2018-11-03T14:06:21.993Z,11.30
2018-11-03T14:07:22.029Z,10.30
2018-11-03T14:08:22.024Z,12.20
2018-11-03T14:09:22.040Z,12.20
2018-11-03T14:10:22.055Z,9.70
2018-11-03T14:11:22.144Z,12.90
2018-11-03T14:12:22.088Z,10.50
2018-11-03T14:13:22.100Z,12.70
2018-11-03T14:14:22.117Z,12.40
2018-11-03T14:15:22.130Z,15.70
2018-11-03T14:16:22.144Z,12.50
2018-11-03T14:17:22.254Z,10.90
2018-11-03T14:18:22.180Z,12.40
2018-11-03T14:19:22.191Z,12.40
2018-11-03T14:20:22.207Z,13.10
2018-11-03T14:21:22.224Z,11.90
2018-11-03T14:22:22.240Z,11.50
2018-11-03T14:23:22.304Z,13.10
2018-11-03T14:24:22.268Z,11.00
2018-11-03T14:25:22.286Z,14.80
2018-11-03T14:26:22.299Z,11.20
2018-11-03T14:27:22.312Z,11.90
2018-11-03T14:28:22.326Z,10.20
2018-11-03T14:29:22.469Z,11.40
2018-11-03T14:30:22.359Z,11.10
2018-11-03T14:31:22.370Z,10.40
2018-11-03T14:32:22.388Z,8.90
2018-11-03T14:33:22.447Z,9.00
2018-11-03T14:34:22.415Z,8.40
2018-11-03T14:35:22.429Z,12.80
2018-11-03T14:36:22.540Z,12.20
2018-11-03T14:37:22.464Z,10.50
2018-11-03T14:38:22.476Z,10.70
2018-11-03T14:39:22.491Z,14.60
2018-11-03T14:40:22.506Z,15.00
2018-11-03T14:41:22.520Z,15.20
2018-11-03T14:42:22.537Z,11.80
2018-11-03T14:43:22.551Z,11.70
2018-11-03T14:44:22.566Z,10.20
2018-11-03T14:45:22.619Z,10.20
2018-11-03T14:46:22.595Z,14.00
2018-11-03T14:47:22.612Z,14.10
2018-11-03T14:48:22.625Z,15.40
2018-11-03T14:49:22.660Z,12.20
2018-11-03T14:50:22.651Z,11.40
2018-11-03T14:51:22.728Z,11.90
2018-11-03T14:52:22.697Z,11.50
2018-11-03T14:53:22.748Z,12.80
2018-11-03T14:54:22.711Z,10.30
2018-11-03T14:55:22.728Z,10.80
2018-11-03T14:56:22.796Z,9.10
2018-11-03T14:57:22.755Z,10.70
2018-11-03T14:58:22.773Z,8.50
2018-11-03T14:59:22.793Z,8.10
2018-11-03T15:00:22.801Z,9.70
2018-11-03T15:01:22.815Z,9.40
2018-11-03T15:02:22.831Z,12.70
2018-11-03T15:03:22.844Z,9.60
2018-11-03T15:04:22.861Z,10.40
2018-11-03T15:05:22.873Z,8.80
2018-11-03T15:06:22.886Z,10.90
2018-11-03T15:07:22.908Z,10.00
2018-11-03T15:08:22.960Z,11.10
2018-11-03T15:09:22.934Z,10.40
2018-11-03T15:10:22.945Z,10.60
2018-11-03T15:11:23.080Z,10.20
2018-11-03T15:12:22.976Z,12.20
2018-11-03T15:13:23.057Z,13.40
2018-11-03T15:14:23.129Z,13.60
2018-11-03T15:15:23.018Z,10.70
2018-11-03T15:16:23.039Z,12.90
2018-11-03T15:17:23.052Z,14.00
2018-11-03T15:18:23.063Z,12.10
2018-11-03T15:19:23.075Z,13.60
2018-11-03T15:20:23.094Z,12.50
2018-11-03T15:21:23.109Z,11.50
2018-11-03T15:22:23.160Z,12.90
2018-11-03T15:23:23.136Z,12.90
2018-11-03T15:24:23.151Z,13.40
2018-11-03T15:25:23.173Z,11.30
2018-11-03T15:26:23.179Z,12.40
2018-11-03T15:27:23.194Z,16.20
2018-11-03T15:28:23.209Z,12.40
2018-11-03T15:29:23.225Z,15.70
2018-11-03T15:30:23.235Z,12.20
2018-11-03T15:31:23.256Z,15.60
2018-11-03T15:32:23.325Z,16.30
2018-11-03T15:33:23.280Z,13.70
2018-11-03T15:34:23.300Z,14.60
2018-11-03T15:35:23.312Z,11.50
2018-11-03T15:36:23.324Z,12.70
2018-11-03T15:37:23.338Z,13.60
2018-11-03T15:38:23.357Z,14.00
2018-11-03T15:39:23.366Z,14.50
2018-11-03T15:40:23.380Z,12.10
2018-11-03T15:41:23.467Z,13.40
2018-11-03T15:42:23.412Z,13.20
2018-11-03T15:43:23.424Z,13.70
2018-11-03T15:44:23.490Z,13.10
2018-11-03T15:45:23.453Z,13.80
2018-11-03T15:46:23.465Z,13.20
2018-11-03T15:47:23.480Z,12.90
2018-11-03T15:48:23.496Z,13.00
2018-11-03T15:49:23.523Z,13.40
2018-11-03T15:50:23.523Z,13.50
2018-11-03T15:51:23.555Z,11.80